Time;durP1;ratioP1;P1;durP2;ratioP2;P2;SDS_P1;SDS_P2;PMS_P1;PMS_P2;Temp;Humidity;BMP_temperature;BMP_pressure;BME280_temperature;BME280_humidity;BME280_pressure;Samples;Min_cycle;Max_cycle;Signal;HPM_P1;HPM_P2
2023/07/31 05:31:56;;;;;;;5.80;5.20;;;;;;;25.75;50.85;100048.10;107922;1260;604830;-89
2023/07/31 05:34:43;;;;;;;5.50;4.90;;;;;;;25.79;50.90;100047.79;103745;1258;6342102;-90
2023/07/31 05:37:25;;;;;;;6.80;5.00;;;;;;;25.69;50.94;100047.02;108983;1257;69140;-90
2023/07/31 05:39:54;;;;;;;5.80;5.10;;;;;;;25.57;50.99;100042.20;109077;1259;69053;-89
2023/07/31 05:42:23;;;;;;;4.90;4.30;;;;;;;25.52;51.22;100049.67;108205;1260;530860;-87
2023/07/31 05:47:18;;;;;;;6.70;4.70;;;;;;;25.40;51.32;100044.84;108191;1260;526715;-90
2023/07/31 05:49:45;;;;;;;6.60;4.10;;;;;;;25.36;51.36;100046.28;108902;1258;69187;-89
2023/07/31 05:52:11;;;;;;;8.80;4.60;;;;;;;25.31;51.47;100050.20;108153;1260;509680;-90
2023/07/31 05:54:37;;;;;;;5.60;4.50;;;;;;;25.28;51.67;100047.75;108673;1260;67766;-89
2023/07/31 05:59:46;;;;;;;5.30;4.60;;;;;;;25.21;51.86;100039.23;108738;1260;66735;-90
2023/07/31 06:02:14;;;;;;;6.50;4.50;;;;;;;25.18;51.64;100040.76;108925;1260;67457;-90
2023/07/31 06:04:48;;;;;;;6.20;4.40;;;;;;;25.14;51.77;100043.83;108969;1257;67003;-90
2023/07/31 06:07:13;;;;;;;7.30;4.30;;;;;;;25.14;51.97;100053.45;108815;1258;69149;-89
2023/07/31 06:09:39;;;;;;;6.20;4.00;;;;;;;25.14;52.01;100058.96;108882;1257;67100;-89
2023/07/31 06:12:10;;;;;;;4.20;3.70;;;;;;;25.17;52.11;100061.63;108866;1260;69066;-89
2023/07/31 06:17:27;;;;;;;34.90;30.80;;;;;;;25.20;52.25;100061.23;108796;1259;67222;-89
2023/07/31 06:19:52;;;;;;;;;;;;;;;25.22;52.31;100060.46;108783;1259;73431;-89
2023/07/31 06:22:18;;;;;;;9.60;8.00;;;;;;;25.22;52.12;100066.25;108814;1260;69191;-89
2023/07/31 06:24:44;;;;;;;5.40;4.90;;;;;;;25.25;52.10;100071.83;108719;1259;69728;-89
2023/07/31 06:27:11;;;;;;;7.10;4.80;;;;;;;25.26;52.14;100077.02;108796;1259;69275;-89
2023/07/31 06:32:14;;;;;;;6.40;4.00;;;;;;;25.27;52.18;100087.27;108854;1259;72369;-90
2023/07/31 06:34:40;;;;;;;5.40;4.20;;;;;;;25.26;52.09;100087.20;108762;1260;66774;-89
2023/07/31 06:37:07;;;;;;;5.80;3.90;;;;;;;25.25;52.21;100092.33;107975;1265;516304;-89
2023/07/31 06:39:37;;;;;;;6.00;4.10;;;;;;;25.25;52.02;100096.30;108949;1261;66807;-89
2023/07/31 06:50:18;;;;;;;7.10;4.20;;;;;;;25.22;51.91;100102.64;108964;1259;68067;-89
2023/07/31 06:53:11;;;;;;;9.30;4.10;;;;;;;25.20;52.20;100103.05;108881;1259;65867;-87
2023/07/31 06:55:37;;;;;;;4.60;3.80;;;;;;;25.19;52.22;100106.35;108170;1260;559385;-89
2023/07/31 06:58:02;;;;;;;9.60;4.60;;;;;;;25.19;51.96;100109.71;108841;1258;67324;-90
2023/07/31 07:00:32;;;;;;;5.20;4.50;;;;;;;25.19;52.04;100108.69;108335;1260;554573;-88
2023/07/31 07:03:02;;;;;;;5.10;4.20;;;;;;;25.18;51.95;100110.34;109012;1259;67519;-88
2023/07/31 07:13:59;;;;;;;8.00;6.20;;;;;;;25.16;52.17;100120.17;108216;1260;537643;-90
2023/07/31 07:16:25;;;;;;;6.90;5.30;;;;;;;25.16;52.27;100119.34;109071;1259;68282;-89
2023/07/31 07:18:51;;;;;;;5.90;5.10;;;;;;;25.17;52.09;100123.65;109098;1260;66755;-88
2023/07/31 07:21:17;;;;;;;6.70;4.60;;;;;;;25.16;52.26;100123.87;108899;1259;69101;-89
2023/07/31 07:23:43;;;;;;;6.90;6.00;;;;;;;25.17;52.26;100126.37;108925;1259;66826;-90
2023/07/31 07:26:10;;;;;;;8.10;6.40;;;;;;;25.17;52.10;100127.81;108759;1259;68224;-89
2023/07/31 07:28:37;;;;;;;7.30;5.90;;;;;;;25.17;52.20;100129.20;108957;1259;69415;-89
2023/07/31 07:31:03;;;;;;;6.40;4.80;;;;;;;25.17;52.17;100122.56;108850;1259;69162;-89
2023/07/31 07:33:29;;;;;;;6.40;4.50;;;;;;;25.17;52.32;100129.16;108780;1258;67121;-89
2023/07/31 07:35:55;;;;;;;5.70;4.20;;;;;;;25.16;52.15;100128.56;108282;1259;526441;-86
2023/07/31 07:41:06;;;;;;;4.80;4.10;;;;;;;25.15;52.21;100131.84;108292;1259;517812;-90
2023/07/31 07:49:45;;;;;;;5.70;4.20;;;;;;;25.17;52.50;100140.61;108524;1260;515999;-90
2023/07/31 07:55:52;;;;;;;5.20;4.20;;;;;;;25.18;52.04;100142.43;108499;1260;500176;-90
2023/07/31 08:01:20;;;;;;;16.60;14.90;;;;;;;25.18;52.14;100139.48;108306;1260;525289;-89
2023/07/31 08:04:01;;;;;;;23.80;21.30;;;;;;;25.19;52.29;100139.91;108824;1261;73316;-88
2023/07/31 08:09:44;;;;;;;44.70;39.90;;;;;;;25.21;52.30;100129.59;108395;1259;513964;-90
2023/07/31 08:15:40;;;;;;;13.70;12.40;;;;;;;25.20;52.20;100132.60;108486;1259;560434;-91
2023/07/31 08:18:17;;;;;;;11.40;10.30;;;;;;;25.19;52.22;100132.05;109143;1260;72852;-89
2023/07/31 08:20:54;;;;;;;8.50;7.70;;;;;;;25.19;52.13;100131.48;108581;1257;519595;31
2023/07/31 08:26:36;;;;;;;7.70;6.90;;;;;;;25.18;52.46;100141.33;108967;1259;68895;-89
2023/07/31 08:32:10;;;;;;;11.20;5.70;;;;;;;25.20;52.29;100142.38;108595;1257;531113;-90
2023/07/31 08:35:02;;;;;;;8.30;5.20;;;;;;;25.20;52.37;100143.40;108990;1257;67084;-89
2023/07/31 08:37:30;;;;;;;6.40;4.90;;;;;;;25.20;52.48;100143.96;108998;1257;67207;-89
2023/07/31 08:40:08;;;;;;;8.60;5.10;;;;;;;25.20;52.55;100143.77;109058;1256;69152;-90
2023/07/31 08:42:50;;;;;;;6.70;5.50;;;;;;;25.19;52.60;100146.98;108935;1259;66859;-89
2023/07/31 08:45:23;;;;;;;7.70;5.20;;;;;;;25.19;52.48;100148.26;109136;1260;73348;-88
2023/07/31 08:47:50;;;;;;;7.70;5.20;;;;;;;25.21;52.58;100149.67;108937;1257;67580;-89
2023/07/31 08:50:32;;;;;;;9.50;4.60;;;;;;;25.26;52.75;100148.90;108783;1257;66669;31
2023/07/31 08:53:17;;;;;;;5.40;4.60;;;;;;;25.30;53.07;100153.99;108951;1260;67091;-91
2023/07/31 08:58:34;;;;;;;8.90;7.90;;;;;;;25.38;52.89;100168.65;109127;1260;72778;-88
2023/07/31 09:01:05;;;;;;;8.40;7.00;;;;;;;25.42;52.77;100173.61;109120;1260;67342;-90
2023/07/31 09:03:35;;;;;;;7.40;6.10;;;;;;;25.44;52.70;100174.52;108251;1257;528369;-89
2023/07/31 09:06:02;;;;;;;6.60;5.40;;;;;;;25.45;52.56;100175.89;109174;1257;66882;-89
2023/07/31 09:08:30;;;;;;;6.80;5.40;;;;;;;25.46;52.42;100177.27;109091;1257;67428;-89
2023/07/31 09:13:51;;;;;;;6.60;5.10;;;;;;;25.45;52.20;100174.54;108774;1259;69094;-90
2023/07/31 09:16:33;;;;;;;9.20;5.80;;;;;;;25.45;52.25;100173.83;109147;1257;67377;-90
2023/07/31 09:28:27;;;;;;;5.80;5.20;;;;;;;25.41;52.18;100174.66;108595;1256;545520;-90
2023/07/31 09:34:07;;;;;;;7.50;5.50;;;;;;;25.38;52.31;100169.56;108649;1257;541321;-89
2023/07/31 09:39:44;;;;;;;5.90;5.10;;;;;;;25.34;52.30;100168.35;108645;1257;553846;-90
2023/07/31 09:45:25;;;;;;;6.60;5.40;;;;;;;25.34;52.32;100166.16;108785;1253;508904;-90
2023/07/31 09:51:10;;;;;;;7.20;5.90;;;;;;;25.33;52.42;100173.70;109295;1256;66682;-89
2023/07/31 09:56:47;;;;;;;6.60;5.60;;;;;;;25.32;52.50;100173.25;108631;1256;536322;-87
2023/07/31 10:02:21;;;;;;;5.70;5.20;;;;;;;25.34;52.44;100179.77;109127;1257;544970;-92
2023/07/31 10:08:06;;;;;;;6.40;5.80;;;;;;;25.34;52.32;100176.09;108878;1260;545529;-89
2023/07/31 10:10:36;;;;;;;6.60;5.70;;;;;;;25.35;52.24;100177.88;109093;1262;69084;-88
2023/07/31 10:15:56;;;;;;;7.30;5.20;;;;;;;25.38;52.11;100172.25;108660;1256;555930;-92
2023/07/31 10:22:07;;;;;;;7.20;5.20;;;;;;;25.40;52.11;100166.17;108915;1260;537986;-89
2023/07/31 10:30:33;;;;;;;6.90;5.30;;;;;;;25.47;51.99;100150.75;109430;1256;67006;-89
2023/07/31 10:39:55;;;;;;;6.80;5.20;;;;;;;25.49;51.99;100155.70;109457;1257;69230;-90
2023/07/31 10:45:49;;;;;;;4.90;4.50;;;;;;;25.49;52.07;100156.78;109315;1257;67956;-89
2023/07/31 10:51:10;;;;;;;5.50;4.80;;;;;;;25.50;51.78;100154.38;109227;1256;73145;-89
2023/07/31 10:59:37;;;;;;;5.70;4.60;;;;;;;25.52;51.82;100151.89;109272;1257;67457;-89
2023/07/31 11:02:31;;;;;;;6.20;4.80;;;;;;;25.52;51.84;100147.37;109324;1257;66934;-87
2023/07/31 11:08:25;;;;;;;5.30;4.80;;;;;;;25.54;51.80;100143.88;109220;1257;69094;-89
2023/07/31 11:13:53;;;;;;;6.10;4.90;;;;;;;25.56;51.80;100141.20;109148;1257;66801;-88
2023/07/31 11:16:21;;;;;;;6.10;4.60;;;;;;;25.57;51.81;100136.45;108823;1257;67950;-88
2023/07/31 11:18:48;;;;;;;5.10;4.50;;;;;;;25.58;51.75;100134.58;108927;1257;74451;-88
2023/07/31 11:21:17;;;;;;;5.10;4.70;;;;;;;25.59;51.60;100134.27;109014;1262;67104;-88
2023/07/31 11:23:51;;;;;;;5.80;4.60;;;;;;;25.59;51.85;100130.78;108932;1257;67404;-88
2023/07/31 11:26:18;;;;;;;6.20;4.80;;;;;;;25.59;51.63;100133.42;109007;1257;69051;-87
2023/07/31 11:28:50;;;;;;;5.10;4.70;;;;;;;25.58;51.57;100139.82;109065;1256;69357;-88
2023/07/31 11:31:19;;;;;;;6.90;5.00;;;;;;;25.56;51.54;100136.41;108830;1260;73315;-88
2023/07/31 11:33:47;;;;;;;5.90;5.20;;;;;;;25.56;51.63;100132.52;109201;1257;69241;-88
2023/07/31 11:36:22;;;;;;;5.70;5.20;;;;;;;25.55;51.46;100127.78;108350;1257;530434;-87
2023/07/31 11:38:48;;;;;;;5.10;4.60;;;;;;;25.55;51.38;100130.66;109023;1256;67200;-88
2023/07/31 11:41:15;;;;;;;5.90;4.50;;;;;;;25.56;51.36;100127.00;108904;1257;69169;-88
2023/07/31 11:43:41;;;;;;;5.40;4.60;;;;;;;25.56;51.37;100125.52;108780;1257;68941;-89
2023/07/31 11:46:07;;;;;;;5.20;4.70;;;;;;;25.58;51.18;100114.33;108628;1257;67232;-88
2023/07/31 11:48:35;;;;;;;6.80;4.40;;;;;;;25.59;51.23;100111.09;108765;1257;69238;-88
2023/07/31 11:51:02;;;;;;;6.00;4.70;;;;;;;25.60;51.18;100108.45;108969;1257;67348;-88
2023/07/31 11:53:28;;;;;;;5.00;4.50;;;;;;;25.62;51.14;100107.27;108906;1257;67126;-88
2023/07/31 11:55:53;;;;;;;5.40;4.90;;;;;;;25.63;51.16;100105.69;108938;1257;69171;-89
2023/07/31 11:58:19;;;;;;;5.30;4.80;;;;;;;25.64;51.14;100105.73;108772;1257;69149;-88
2023/07/31 12:00:44;;;;;;;6.80;6.10;;;;;;;25.64;51.07;100111.29;108732;1257;67300;-88
2023/07/31 12:03:10;;;;;;;7.20;6.50;;;;;;;25.63;51.04;100112.75;108906;1257;67080;-88
2023/07/31 12:05:37;;;;;;;7.30;6.60;;;;;;;25.62;51.06;100113.25;108841;1257;69092;-88
2023/07/31 12:08:03;;;;;;;5.70;5.20;;;;;;;25.61;50.88;100111.83;108784;1257;66684;-88
2023/07/31 12:10:34;;;;;;;5.10;4.50;;;;;;;25.60;51.08;100110.41;108663;1257;67666;-93
2023/07/31 12:13:01;;;;;;;4.70;4.30;;;;;;;25.59;51.14;100118.73;108709;1257;66823;-88
2023/07/31 12:15:37;;;;;;;4.70;4.30;;;;;;;25.58;51.09;100120.79;108829;1257;69175;-88
2023/07/31 12:18:07;;;;;;;4.40;4.00;;;;;;;25.57;50.86;100122.63;108944;1257;73448;-89
2023/07/31 12:20:33;;;;;;;5.80;3.90;;;;;;;25.56;50.92;100119.06;108887;1257;67492;-89
2023/07/31 12:22:59;;;;;;;5.10;4.00;;;;;;;25.53;50.87;100115.00;109131;1257;66639;-87
2023/07/31 12:25:32;;;;;;;5.00;4.00;;;;;;;25.50;50.64;100114.34;109045;1257;66901;-90
2023/07/31 12:30:38;;;;;;;4.60;4.20;;;;;;;25.46;50.73;100117.39;109210;1257;73427;-88
2023/07/31 12:33:06;;;;;;;5.60;3.80;;;;;;;25.45;50.68;100110.48;108982;1256;66904;-88
2023/07/31 12:35:36;;;;;;;4.50;3.90;;;;;;;25.44;50.61;100108.55;109132;1256;68993;-87
2023/07/31 12:38:02;;;;;;;5.90;4.20;;;;;;;25.41;50.58;100110.38;109344;1256;68903;-89
2023/07/31 12:40:32;;;;;;;5.30;3.90;;;;;;;25.40;50.74;100107.98;109001;1256;67165;31
2023/07/31 12:43:02;;;;;;;4.90;3.80;;;;;;;25.39;50.69;100108.58;108930;1257;73479;-89
2023/07/31 12:45:27;;;;;;;4.50;3.80;;;;;;;25.39;50.77;100101.36;109098;1260;66597;-89
2023/07/31 12:47:53;;;;;;;4.50;4.10;;;;;;;25.40;50.79;100096.80;109103;1258;69161;-89
2023/07/31 12:50:19;;;;;;;4.90;4.00;;;;;;;25.41;50.64;100091.11;108888;1257;69057;-89
2023/07/31 12:52:45;;;;;;;4.60;3.80;;;;;;;25.42;50.58;100090.06;109010;1257;69311;-88
2023/07/31 12:57:46;;;;;;;5.00;4.20;;;;;;;25.43;50.59;100089.17;109183;1257;68207;-88
2023/07/31 13:00:14;;;;;;;4.20;3.70;;;;;;;25.42;50.65;100083.16;108339;1259;528694;-88
2023/07/31 13:02:40;;;;;;;4.30;3.90;;;;;;;25.43;50.50;100079.81;108968;1258;68983;-88
2023/07/31 13:05:06;;;;;;;6.20;4.20;;;;;;;25.44;50.39;100076.65;108573;1256;522728;-88
2023/07/31 13:07:33;;;;;;;5.70;4.00;;;;;;;25.44;50.21;100067.79;109238;1256;66846;-88
2023/07/31 13:09:59;;;;;;;5.30;4.00;;;;;;;25.44;50.11;100064.75;108776;1257;69206;-88
2023/07/31 13:12:26;;;;;;;4.20;3.80;;;;;;;25.44;49.94;100061.66;108189;1256;527574;-90
2023/07/31 13:14:52;;;;;;;4.50;4.10;;;;;;;25.45;49.95;100060.60;108923;1257;69087;-89
2023/07/31 13:20:22;;;;;;;4.80;4.30;;;;;;;25.46;49.91;100071.09;109237;1257;72191;-89
2023/07/31 13:25:59;;;;;;;4.50;4.10;;;;;;;25.46;49.79;100076.30;108455;1257;513475;-86
2023/07/31 13:29:02;;;;;;;4.30;3.90;;;;;;;25.45;49.63;100076.92;109196;1257;69032;-89
2023/07/31 13:34:55;;;;;;;4.70;4.30;;;;;;;25.43;49.72;100077.80;108537;1256;495931;-89
2023/07/31 13:40:35;;;;;;;4.80;4.40;;;;;;;25.42;49.86;100075.19;108784;1257;522647;-89
2023/07/31 13:46:32;;;;;;;6.70;4.90;;;;;;;25.40;50.02;100081.32;109132;1257;69095;31
2023/07/31 13:49:36;;;;;;;6.40;4.90;;;;;;;25.39;50.06;100074.33;109460;1254;72543;-86
2023/07/31 13:55:37;;;;;;;5.10;4.60;;;;;;;25.40;49.92;100071.61;108968;1257;504281;-92
2023/07/31 14:04:26;;;;;;;5.00;4.50;;;;;;;25.40;49.83;100080.64;109297;1257;72334;31
2023/07/31 14:07:33;;;;;;;5.20;4.70;;;;;;;25.40;49.62;100088.67;108998;1257;500793;-92
2023/07/31 14:10:22;;;;;;;4.80;4.40;;;;;;;25.40;49.80;100093.25;109521;1257;67206;-88
2023/07/31 14:12:49;;;;;;;4.70;4.30;;;;;;;25.43;49.94;100094.96;108943;1258;69091;-88
2023/07/31 14:15:15;;;;;;;5.00;4.50;;;;;;;25.45;49.86;100092.34;108932;1256;68185;-89
2023/07/31 14:17:42;;;;;;;5.20;4.40;;;;;;;25.47;49.83;100089.72;109499;1257;67266;-88
2023/07/31 14:20:10;;;;;;;4.90;4.50;;;;;;;25.48;49.70;100086.94;109676;1256;66951;-87
2023/07/31 14:22:37;;;;;;;4.70;4.30;;;;;;;25.50;49.83;100081.86;109707;1254;67070;-87
2023/07/31 14:27:45;;;;;;;4.70;4.30;;;;;;;25.55;49.66;100082.56;109742;1257;66551;-88
2023/07/31 14:30:18;;;;;;;4.70;4.30;;;;;;;25.56;49.62;100081.48;108394;1257;513955;-92
2023/07/31 14:32:55;;;;;;;4.80;4.40;;;;;;;25.58;49.52;100074.23;108467;1258;514952;-92
2023/07/31 14:35:27;;;;;;;4.90;4.40;;;;;;;25.58;49.42;100065.78;109192;1257;67445;-89
2023/07/31 14:37:54;;;;;;;4.80;4.40;;;;;;;25.59;49.56;100064.47;109183;1257;67092;-87
2023/07/31 14:40:20;;;;;;;4.70;4.30;;;;;;;25.61;49.37;100063.97;109039;1257;67898;-88
2023/07/31 14:42:46;;;;;;;4.60;4.20;;;;;;;25.62;49.54;100062.80;108842;1257;66931;-88
2023/07/31 14:45:24;;;;;;;5.50;4.50;;;;;;;25.63;49.29;100063.29;107984;1260;523968;-92
2023/07/31 14:47:50;;;;;;;4.40;4.00;;;;;;;25.63;49.18;100066.27;108900;1256;67494;-89
2023/07/31 14:50:19;;;;;;;4.70;4.30;;;;;;;25.64;49.39;100065.95;108966;1257;69221;-90
2023/07/31 14:52:45;;;;;;;4.90;4.50;;;;;;;25.65;49.31;100065.30;108817;1257;69107;-88
2023/07/31 14:55:12;;;;;;;4.40;4.00;;;;;;;25.66;49.28;100065.27;108864;1257;82931;-88
2023/07/31 14:57:39;;;;;;;5.00;4.50;;;;;;;25.66;49.35;100066.14;108794;1260;69059;-88
2023/07/31 15:00:07;;;;;;;5.20;4.60;;;;;;;25.66;49.25;100066.45;108783;1257;67309;-89
2023/07/31 15:05:08;;;;;;;4.60;4.30;;;;;;;25.68;49.42;100063.73;109140;1256;69200;-89
2023/07/31 15:07:36;;;;;;;4.60;4.20;;;;;;;25.68;49.48;100059.92;108870;1257;74204;-88
2023/07/31 15:10:02;;;;;;;4.60;4.20;;;;;;;25.68;49.26;100057.70;108760;1258;67302;-89
2023/07/31 15:12:29;;;;;;;4.60;4.30;;;;;;;25.69;49.56;100068.50;108693;1257;67600;-88
2023/07/31 15:14:55;;;;;;;4.70;4.30;;;;;;;25.69;49.35;100075.91;108791;1257;67840;-88
2023/07/31 15:17:21;;;;;;;4.40;4.00;;;;;;;25.69;49.31;100081.31;108792;1257;69234;-88
2023/07/31 15:19:48;;;;;;;4.50;4.00;;;;;;;25.69;49.37;100080.34;108775;1256;69189;-88
2023/07/31 15:22:14;;;;;;;4.60;4.20;;;;;;;25.69;49.43;100077.50;108808;1257;67076;-88
2023/07/31 15:24:49;;;;;;;5.00;4.50;;;;;;;25.70;49.43;100080.69;108710;1256;67066;-89
2023/07/31 15:30:04;;;;;;;4.80;4.40;;;;;;;25.70;49.29;100080.38;108937;1260;66637;-87
2023/07/31 15:35:34;;;;;;;4.90;4.50;;;;;;;25.70;49.42;100078.67;108525;1256;529357;-89
2023/07/31 15:41:09;;;;;;;4.90;4.40;;;;;;;25.70;49.50;100069.35;109200;1256;67139;-87
2023/07/31 15:46:46;;;;;;;6.30;4.70;;;;;;;25.70;49.68;100058.89;108513;1257;538200;-88
2023/07/31 15:52:23;;;;;;;4.40;4.10;;;;;;;25.70;49.79;100049.82;108470;1256;525001;-87
2023/07/31 15:55:26;;;;;;;4.60;4.20;;;;;;;25.70;49.84;100050.54;108539;1257;527958;-88
2023/07/31 15:58:29;;;;;;;5.60;4.50;;;;;;;25.70;49.84;100047.29;108552;1254;548670;-88
2023/07/31 16:04:20;;;;;;;4.30;3.90;;;;;;;25.71;50.06;100052.42;108417;1257;521851;-88
2023/07/31 16:10:04;;;;;;;4.90;4.10;;;;;;;25.71;49.86;100059.52;108774;1257;524834;-91
2023/07/31 16:18:14;;;;;;;5.30;4.40;;;;;;;25.72;50.04;100061.31;108573;1257;506313;-89
2023/07/31 16:20:41;;;;;;;4.60;4.20;;;;;;;25.73;49.84;100063.10;108703;1261;69155;-89
2023/07/31 16:23:08;;;;;;;5.60;4.30;;;;;;;25.73;50.05;100068.05;108828;1261;69203;-89
2023/07/31 16:25:34;;;;;;;4.90;4.40;;;;;;;25.73;49.96;100073.08;108315;1257;508678;-88
2023/07/31 16:28:00;;;;;;;4.80;4.40;;;;;;;25.74;50.25;100073.69;108860;1259;73384;-89
2023/07/31 16:32:58;;;;;;;4.80;4.30;;;;;;;25.74;50.17;100075.59;109146;1256;68930;-89
2023/07/31 16:35:25;;;;;;;4.80;4.30;;;;;;;25.74;50.15;100076.41;108224;1256;529140;-88
2023/07/31 16:37:51;;;;;;;4.50;4.10;;;;;;;25.74;50.22;100076.16;108406;1257;513558;-89
2023/07/31 16:40:17;;;;;;;5.00;4.50;;;;;;;25.74;50.18;100078.26;108870;1257;67115;-89
2023/07/31 16:42:43;;;;;;;5.50;4.40;;;;;;;25.74;50.18;100083.11;108901;1256;66857;-89
2023/07/31 16:45:10;;;;;;;6.50;4.70;;;;;;;25.75;50.41;100083.71;108887;1257;67321;-89
2023/07/31 16:47:36;;;;;;;6.60;4.20;;;;;;;25.74;50.27;100089.45;109060;1257;66784;-89
2023/07/31 16:50:02;;;;;;;5.00;4.10;;;;;;;25.75;50.34;100097.77;108274;1256;529905;-89
2023/07/31 16:52:29;;;;;;;5.00;4.50;;;;;;;25.75;50.32;100097.88;108962;1262;68991;-88
2023/07/31 16:54:56;;;;;;;4.90;4.30;;;;;;;25.75;50.33;100098.45;109016;1256;67677;-89
2023/07/31 17:00:36;;;;;;;4.60;4.30;;;;;;;25.74;50.34;100104.14;108922;1257;66953;-89
2023/07/31 17:03:03;;;;;;;4.90;4.40;;;;;;;25.74;50.56;100095.80;108857;1262;67819;-89
2023/07/31 17:05:29;;;;;;;4.60;4.20;;;;;;;25.74;50.42;100091.14;108832;1257;67235;-89
2023/07/31 17:07:55;;;;;;;5.20;4.70;;;;;;;25.74;50.43;100088.42;108771;1257;67084;-89
2023/07/31 17:10:22;;;;;;;5.40;4.50;;;;;;;25.74;50.51;100085.06;108875;1257;67648;-89
2023/07/31 17:12:49;;;;;;;7.70;4.30;;;;;;;25.74;50.63;100081.05;109143;1254;66815;-89
2023/07/31 17:18:03;;;;;;;5.20;4.70;;;;;;;25.74;50.64;100082.18;108694;1257;521567;-88
2023/07/31 17:20:32;;;;;;;5.80;4.70;;;;;;;25.74;50.68;100080.61;108934;1257;68916;-89
2023/07/31 17:22:58;;;;;;;5.30;4.80;;;;;;;25.74;50.52;100073.80;108592;1257;531009;-89
2023/07/31 17:25:25;;;;;;;5.20;4.70;;;;;;;25.74;50.60;100076.10;108872;1259;69082;-88
2023/07/31 17:27:52;;;;;;;5.50;5.00;;;;;;;25.74;50.74;100068.75;108922;1260;68991;-89
2023/07/31 17:32:58;;;;;;;5.00;4.50;;;;;;;25.74;50.87;100070.44;109432;1257;66680;-89
2023/07/31 17:35:24;;;;;;;5.30;4.80;;;;;;;25.74;50.88;100076.36;109043;1260;507049;-88
2023/07/31 17:37:50;;;;;;;4.80;4.40;;;;;;;25.74;50.86;100085.33;109440;1257;66848;-89
2023/07/31 17:40:17;;;;;;;5.00;4.60;;;;;;;25.75;51.12;100094.73;108720;1260;522885;-88
2023/07/31 17:42:43;;;;;;;5.10;4.70;;;;;;;25.74;50.95;100096.70;109342;1261;69278;-89
2023/07/31 17:47:53;;;;;;;4.80;4.40;;;;;;;25.74;51.03;100107.75;109217;1260;69018;-89
2023/07/31 17:56:21;;;;;;;5.00;4.50;;;;;;;25.73;51.15;100122.55;108571;1257;525398;-89
2023/07/31 18:01:58;;;;;;;5.00;4.50;;;;;;;25.73;51.19;100126.73;108550;1256;520255;-89
2023/07/31 18:07:38;;;;;;;4.90;4.40;;;;;;;25.72;51.15;100131.79;109296;1258;66917;-88
2023/07/31 18:13:24;;;;;;;4.30;3.90;;;;;;;25.72;51.25;100142.98;108597;1256;536350;-89
2023/07/31 18:18:58;;;;;;;4.20;3.80;;;;;;;25.72;51.19;100152.01;108598;1260;524865;-87
2023/07/31 18:24:47;;;;;;;4.20;3.80;;;;;;;25.72;51.24;100155.93;108737;1256;507730;-91
2023/07/31 18:30:31;;;;;;;4.30;3.60;;;;;;;25.70;51.21;100169.41;108659;1258;507813;-91
2023/07/31 18:36:13;;;;;;;6.90;3.50;;;;;;;25.70;51.17;100180.24;108968;1260;68993;-89
2023/07/31 18:41:44;;;;;;;5.20;3.30;;;;;;;25.69;50.89;100173.82;108373;1257;498242;-89
2023/07/31 18:47:34;;;;;;;3.40;3.10;;;;;;;25.68;50.90;100187.75;108565;1256;522510;-89
2023/07/31 18:50:05;;;;;;;4.30;3.00;;;;;;;25.68;50.84;100183.67;108324;1257;516230;-88
2023/07/31 18:52:31;;;;;;;4.30;3.20;;;;;;;25.68;50.75;100181.78;108237;1256;517423;-88
2023/07/31 18:54:57;;;;;;;4.70;3.10;;;;;;;25.69;50.86;100185.52;108012;1262;525963;-88
2023/07/31 18:57:23;;;;;;;3.60;3.30;;;;;;;25.69;50.67;100192.48;108775;1260;66849;-88
2023/07/31 18:59:49;;;;;;;3.60;3.30;;;;;;;25.68;50.83;100198.96;108695;1259;69060;-88
2023/07/31 19:02:16;;;;;;;5.90;3.40;;;;;;;25.69;50.70;100200.67;108728;1259;69098;-88
2023/07/31 19:04:42;;;;;;;4.40;3.20;;;;;;;25.69;50.63;100198.30;108750;1259;69148;-89
2023/07/31 19:07:08;;;;;;;3.40;3.10;;;;;;;25.68;50.60;100203.46;108761;1261;66758;-89
2023/07/31 19:09:35;;;;;;;3.50;3.20;;;;;;;25.68;50.60;100206.45;108579;1258;67281;-88
2023/07/31 19:14:44;;;;;;;3.60;3.20;;;;;;;25.67;50.61;100213.02;108622;1260;68067;-89
2023/07/31 19:17:10;;;;;;;4.00;3.00;;;;;;;25.68;50.76;100210.94;108571;1266;69214;-88
2023/07/31 19:19:37;;;;;;;3.70;3.20;;;;;;;25.67;50.61;100214.00;108340;1257;515710;-89
2023/07/31 19:22:04;;;;;;;4.60;3.00;;;;;;;25.67;50.45;100212.15;108794;1259;69143;-88
2023/07/31 19:24:30;;;;;;;3.40;3.10;;;;;;;25.67;50.63;100213.13;108767;1257;67374;-88
2023/07/31 19:26:56;;;;;;;4.20;3.10;;;;;;;25.67;50.73;100213.70;108654;1257;68533;-89
2023/07/31 19:29:23;;;;;;;3.70;3.10;;;;;;;25.66;50.67;100214.78;108772;1257;67875;-88
2023/07/31 19:31:48;;;;;;;4.90;3.30;;;;;;;25.66;50.63;100212.38;108700;1257;69161;-88
2023/07/31 19:34:14;;;;;;;3.30;2.80;;;;;;;25.66;50.68;100209.27;108682;1257;66785;-88
2023/07/31 19:36:42;;;;;;;3.20;2.90;;;;;;;25.66;50.53;100207.94;108786;1259;66828;-88
2023/07/31 19:39:10;;;;;;;4.10;2.90;;;;;;;25.65;50.82;100206.46;108772;1257;67128;-88
2023/07/31 19:41:38;;;;;;;3.20;2.90;;;;;;;25.65;50.62;100202.45;108760;1257;69151;-88
2023/07/31 19:44:05;;;;;;;3.60;3.30;;;;;;;25.65;50.64;100202.92;108768;1257;69008;-88
2023/07/31 19:46:31;;;;;;;3.50;3.10;;;;;;;25.64;50.77;100197.62;108671;1257;69076;-88
2023/07/31 19:48:59;;;;;;;3.80;3.10;;;;;;;25.64;50.56;100190.52;108748;1257;68993;-88
2023/07/31 19:51:26;;;;;;;3.80;3.20;;;;;;;25.64;50.61;100184.13;108206;1257;513764;-88
2023/07/31 19:53:52;;;;;;;4.10;3.20;;;;;;;25.64;50.76;100185.68;108739;1257;73490;-88
2023/07/31 19:56:18;;;;;;;4.00;3.30;;;;;;;25.64;50.83;100184.80;108640;1257;69095;-89
2023/07/31 19:58:44;;;;;;;4.00;3.30;;;;;;;25.64;50.64;100182.96;108797;1257;66990;-88
2023/07/31 20:01:10;;;;;;;3.90;3.00;;;;;;;25.64;50.77;100179.40;108703;1257;66914;-88
2023/07/31 20:03:36;;;;;;;4.20;3.20;;;;;;;25.64;50.90;100179.40;108849;1257;69218;-88
2023/07/31 20:06:02;;;;;;;3.70;3.30;;;;;;;25.63;50.70;100177.23;108748;1257;69332;-88
2023/07/31 20:08:28;;;;;;;5.50;3.40;;;;;;;25.63;50.81;100178.48;108586;1257;67250;-88
2023/07/31 20:10:57;;;;;;;4.90;3.40;;;;;;;25.63;50.77;100178.22;108952;1257;67289;-88
2023/07/31 20:13:23;;;;;;;6.00;3.30;;;;;;;25.63;50.85;100182.15;108772;1263;69145;-88
2023/07/31 20:15:49;;;;;;;4.30;3.20;;;;;;;25.63;50.78;100182.98;108793;1257;66792;-88
2023/07/31 20:18:16;;;;;;;5.00;3.60;;;;;;;25.63;50.61;100185.71;108842;1262;67152;-89
2023/07/31 20:23:40;;;;;;;3.80;3.20;;;;;;;25.62;50.71;100185.31;108837;1260;67178;-87
2023/07/31 20:26:22;;;;;;;3.60;3.30;;;;;;;25.60;50.68;100185.02;108809;1256;498851;-87
2023/07/31 20:28:49;;;;;;;4.40;3.20;;;;;;;25.61;50.71;100184.96;109121;1257;67153;-89
2023/07/31 20:31:16;;;;;;;3.80;3.30;;;;;;;25.61;50.70;100183.54;109142;1259;74292;-89
2023/07/31 20:33:43;;;;;;;4.50;3.30;;;;;;;25.60;50.67;100182.16;108840;1257;69101;-89
2023/07/31 20:36:10;;;;;;;4.50;3.70;;;;;;;25.61;50.71;100186.77;108911;1257;67403;-86
2023/07/31 20:41:16;;;;;;;4.90;3.50;;;;;;;25.61;50.75;100186.45;108789;1259;69089;-90
2023/07/31 20:43:42;;;;;;;4.00;3.60;;;;;;;25.60;50.64;100190.37;108639;1261;69165;-89
2023/07/31 20:46:09;;;;;;;4.10;3.70;;;;;;;25.60;50.81;100189.42;108741;1256;66915;-89
2023/07/31 20:48:36;;;;;;;4.00;3.60;;;;;;;25.60;50.74;100194.89;108191;1257;509044;-89
2023/07/31 20:51:08;;;;;;;3.50;3.10;;;;;;;25.60;50.66;100196.17;108531;1257;523895;31
2023/07/31 20:56:02;;;;;;;3.60;3.30;;;;;;;25.60;50.73;100194.28;108521;1257;506881;-88
2023/07/31 20:58:28;;;;;;;3.90;3.60;;;;;;;25.60;50.69;100196.82;109180;1255;67212;-88
2023/07/31 21:00:54;;;;;;;3.90;3.30;;;;;;;25.59;50.78;100198.36;108870;1256;67221;-89
2023/07/31 21:03:21;;;;;;;4.90;3.50;;;;;;;25.59;50.64;100202.59;108845;1257;66757;-88
2023/07/31 21:05:50;;;;;;;4.60;3.60;;;;;;;25.59;50.65;100204.60;108970;1256;69171;-89
2023/07/31 21:08:17;;;;;;;5.50;3.80;;;;;;;25.58;50.52;100205.79;108738;1256;73419;-88